Terminal Aerodrome Forecast
Issued by NWS

Home | Current Version | Previous Version | Text Only | Print | Product List | Glossary On
Versions: 1 2 3 4 5 6 7 8 9 10 11 12 13 14 15 16 17 18 19 20 21 22 23 24 25
000
FTUS43 KDLH 011500 AAA
TAFHIB
TAF AMD
KHIB 011518Z 0115/0212 28010KT P6SM SCT080
     FM012100 29012KT P6SM BKN035 BKN080
      TEMPO 0122/0202 BKN025
     FM020400 30008KT P6SM SKC=

USA.gov is the U.S. government's official web portal to all federal, state and local government web resources and services.